sensor_id;sensor_type;location;lat;lon;timestamp;P1;durP1;ratioP1;P2;durP2;ratioP2
8488;SDS011;4281;45.772;12.852;2023-08-08T00:02:22;2.23;;;0.97;;
8488;SDS011;4281;45.772;12.852;2023-08-08T00:04:50;1.10;;;1.00;;
8488;SDS011;4281;45.772;12.852;2023-08-08T00:07:18;1.87;;;0.93;;
8488;SDS011;4281;45.772;12.852;2023-08-08T00:09:46;0.80;;;0.80;;
8488;SDS011;4281;45.772;12.852;2023-08-08T00:12:14;2.00;;;0.90;;
8488;SDS011;4281;45.772;12.852;2023-08-08T00:14:42;1.10;;;1.00;;
8488;SDS011;4281;45.772;12.852;2023-08-08T00:17:11;0.80;;;0.80;;
8488;SDS011;4281;45.772;12.852;2023-08-08T00:19:41;1.00;;;0.90;;
8488;SDS011;4281;45.772;12.852;2023-08-08T00:22:09;0.90;;;0.80;;
8488;SDS011;4281;45.772;12.852;2023-08-08T00:24:37;1.90;;;1.00;;
8488;SDS011;4281;45.772;12.852;2023-08-08T00:27:04;0.90;;;0.80;;
8488;SDS011;4281;45.772;12.852;2023-08-08T00:29:32;1.60;;;1.03;;
8488;SDS011;4281;45.772;12.852;2023-08-08T00:32:00;1.17;;;0.90;;
8488;SDS011;4281;45.772;12.852;2023-08-08T00:34:30;0.93;;;0.93;;
8488;SDS011;4281;45.772;12.852;2023-08-08T00:36:58;2.17;;;1.00;;
8488;SDS011;4281;45.772;12.852;2023-08-08T00:39:25;2.70;;;1.00;;
8488;SDS011;4281;45.772;12.852;2023-08-08T00:41:54;1.23;;;1.00;;
8488;SDS011;4281;45.772;12.852;2023-08-08T00:44:22;1.97;;;0.90;;
8488;SDS011;4281;45.772;12.852;2023-08-08T00:46:50;1.67;;;1.10;;
8488;SDS011;4281;45.772;12.852;2023-08-08T00:49:18;1.10;;;1.00;;
8488;SDS011;4281;45.772;12.852;2023-08-08T00:51:48;1.63;;;1.00;;
8488;SDS011;4281;45.772;12.852;2023-08-08T00:54:17;1.30;;;1.20;;
8488;SDS011;4281;45.772;12.852;2023-08-08T00:56:45;1.23;;;1.10;;
8488;SDS011;4281;45.772;12.852;2023-08-08T00:59:14;1.00;;;1.00;;
8488;SDS011;4281;45.772;12.852;2023-08-08T01:01:43;1.20;;;1.00;;
8488;SDS011;4281;45.772;12.852;2023-08-08T01:04:11;1.00;;;1.00;;
8488;SDS011;4281;45.772;12.852;2023-08-08T01:06:42;1.30;;;1.13;;
8488;SDS011;4281;45.772;12.852;2023-08-08T01:09:17;1.20;;;1.00;;
8488;SDS011;4281;45.772;12.852;2023-08-08T01:11:49;0.90;;;0.90;;
8488;SDS011;4281;45.772;12.852;2023-08-08T01:14:18;2.10;;;0.90;;
8488;SDS011;4281;45.772;12.852;2023-08-08T01:16:46;1.63;;;1.00;;
8488;SDS011;4281;45.772;12.852;2023-08-08T01:19:18;1.77;;;1.03;;
8488;SDS011;4281;45.772;12.852;2023-08-08T01:21:53;0.80;;;0.80;;
8488;SDS011;4281;45.772;12.852;2023-08-08T01:24:23;0.83;;;0.83;;
8488;SDS011;4281;45.772;12.852;2023-08-08T01:26:55;1.00;;;1.00;;
8488;SDS011;4281;45.772;12.852;2023-08-08T01:29:23;1.53;;;0.80;;
8488;SDS011;4281;45.772;12.852;2023-08-08T01:31:51;0.93;;;0.90;;
8488;SDS011;4281;45.772;12.852;2023-08-08T01:34:18;0.93;;;0.90;;
8488;SDS011;4281;45.772;12.852;2023-08-08T01:36:48;0.70;;;0.70;;
8488;SDS011;4281;45.772;12.852;2023-08-08T01:39:17;0.87;;;0.80;;
8488;SDS011;4281;45.772;12.852;2023-08-08T01:41:49;1.70;;;0.87;;
8488;SDS011;4281;45.772;12.852;2023-08-08T01:44:17;1.77;;;0.80;;
8488;SDS011;4281;45.772;12.852;2023-08-08T01:46:46;1.20;;;1.10;;
8488;SDS011;4281;45.772;12.852;2023-08-08T01:49:14;1.57;;;0.90;;
8488;SDS011;4281;45.772;12.852;2023-08-08T01:51:42;1.03;;;0.90;;
8488;SDS011;4281;45.772;12.852;2023-08-08T01:54:10;1.43;;;0.90;;
8488;SDS011;4281;45.772;12.852;2023-08-08T01:56:38;1.17;;;0.93;;
8488;SDS011;4281;45.772;12.852;2023-08-08T01:59:07;0.93;;;0.90;;
8488;SDS011;4281;45.772;12.852;2023-08-08T02:01:35;1.10;;;1.00;;
8488;SDS011;4281;45.772;12.852;2023-08-08T02:04:03;1.53;;;0.80;;
8488;SDS011;4281;45.772;12.852;2023-08-08T02:06:31;1.63;;;0.93;;
8488;SDS011;4281;45.772;12.852;2023-08-08T02:08:59;1.00;;;0.90;;
8488;SDS011;4281;45.772;12.852;2023-08-08T02:11:27;1.37;;;0.90;;
8488;SDS011;4281;45.772;12.852;2023-08-08T02:13:55;1.13;;;0.80;;
8488;SDS011;4281;45.772;12.852;2023-08-08T02:16:25;1.00;;;0.90;;
8488;SDS011;4281;45.772;12.852;2023-08-08T02:18:53;0.80;;;0.80;;
8488;SDS011;4281;45.772;12.852;2023-08-08T02:21:21;1.00;;;0.93;;
8488;SDS011;4281;45.772;12.852;2023-08-08T02:23:48;0.80;;;0.80;;
8488;SDS011;4281;45.772;12.852;2023-08-08T02:26:16;1.13;;;1.00;;
8488;SDS011;4281;45.772;12.852;2023-08-08T02:28:44;0.80;;;0.80;;
8488;SDS011;4281;45.772;12.852;2023-08-08T02:31:12;2.00;;;0.90;;
8488;SDS011;4281;45.772;12.852;2023-08-08T02:33:48;0.80;;;0.80;;
8488;SDS011;4281;45.772;12.852;2023-08-08T02:36:17;0.80;;;0.80;;
8488;SDS011;4281;45.772;12.852;2023-08-08T02:38:45;0.83;;;0.83;;
8488;SDS011;4281;45.772;12.852;2023-08-08T02:41:13;0.80;;;0.80;;
8488;SDS011;4281;45.772;12.852;2023-08-08T02:43:41;0.90;;;0.80;;
8488;SDS011;4281;45.772;12.852;2023-08-08T02:46:09;1.00;;;0.73;;
8488;SDS011;4281;45.772;12.852;2023-08-08T02:48:37;0.73;;;0.73;;
8488;SDS011;4281;45.772;12.852;2023-08-08T02:51:06;0.90;;;0.90;;
8488;SDS011;4281;45.772;12.852;2023-08-08T02:53:34;0.90;;;0.90;;
8488;SDS011;4281;45.772;12.852;2023-08-08T02:56:02;0.80;;;0.80;;
8488;SDS011;4281;45.772;12.852;2023-08-08T02:58:30;0.80;;;0.80;;
8488;SDS011;4281;45.772;12.852;2023-08-08T03:00:58;0.90;;;0.80;;
8488;SDS011;4281;45.772;12.852;2023-08-08T03:03:26;0.80;;;0.80;;
8488;SDS011;4281;45.772;12.852;2023-08-08T03:05:54;1.90;;;0.70;;
8488;SDS011;4281;45.772;12.852;2023-08-08T03:08:24;0.70;;;0.70;;
8488;SDS011;4281;45.772;12.852;2023-08-08T03:10:53;0.97;;;0.83;;
8488;SDS011;4281;45.772;12.852;2023-08-08T03:13:21;0.77;;;0.77;;
8488;SDS011;4281;45.772;12.852;2023-08-08T03:15:49;0.80;;;0.80;;
8488;SDS011;4281;45.772;12.852;2023-08-08T03:18:17;1.00;;;0.80;;
8488;SDS011;4281;45.772;12.852;2023-08-08T03:20:45;1.70;;;0.90;;
8488;SDS011;4281;45.772;12.852;2023-08-08T03:23:14;0.83;;;0.83;;
8488;SDS011;4281;45.772;12.852;2023-08-08T03:25:43;0.90;;;0.90;;
8488;SDS011;4281;45.772;12.852;2023-08-08T03:28:12;0.97;;;0.80;;
8488;SDS011;4281;45.772;12.852;2023-08-08T03:30:40;1.60;;;0.80;;
8488;SDS011;4281;45.772;12.852;2023-08-08T03:33:08;1.20;;;0.77;;
8488;SDS011;4281;45.772;12.852;2023-08-08T03:35:35;0.70;;;0.70;;
8488;SDS011;4281;45.772;12.852;2023-08-08T03:38:03;0.80;;;0.80;;
8488;SDS011;4281;45.772;12.852;2023-08-08T03:40:31;1.73;;;0.80;;
8488;SDS011;4281;45.772;12.852;2023-08-08T03:43:01;0.80;;;0.80;;
8488;SDS011;4281;45.772;12.852;2023-08-08T03:45:28;1.23;;;1.00;;
8488;SDS011;4281;45.772;12.852;2023-08-08T03:47:56;1.10;;;0.80;;
8488;SDS011;4281;45.772;12.852;2023-08-08T03:50:24;2.10;;;0.83;;
8488;SDS011;4281;45.772;12.852;2023-08-08T03:52:52;2.20;;;1.00;;
8488;SDS011;4281;45.772;12.852;2023-08-08T03:55:20;0.80;;;0.80;;
8488;SDS011;4281;45.772;12.852;2023-08-08T03:57:48;2.17;;;0.80;;
8488;SDS011;4281;45.772;12.852;2023-08-08T04:00:17;0.80;;;0.80;;
8488;SDS011;4281;45.772;12.852;2023-08-08T04:02:45;1.00;;;0.90;;
8488;SDS011;4281;45.772;12.852;2023-08-08T04:05:13;1.00;;;0.80;;
8488;SDS011;4281;45.772;12.852;2023-08-08T04:07:41;0.97;;;0.90;;
8488;SDS011;4281;45.772;12.852;2023-08-08T04:10:10;1.47;;;0.70;;
8488;SDS011;4281;45.772;12.852;2023-08-08T04:12:38;2.03;;;0.80;;
8488;SDS011;4281;45.772;12.852;2023-08-08T04:15:06;1.60;;;0.77;;
8488;SDS011;4281;45.772;12.852;2023-08-08T04:17:37;0.90;;;0.80;;
8488;SDS011;4281;45.772;12.852;2023-08-08T04:20:05;1.23;;;0.77;;
8488;SDS011;4281;45.772;12.852;2023-08-08T04:22:34;0.63;;;0.63;;
8488;SDS011;4281;45.772;12.852;2023-08-08T04:25:03;1.87;;;0.80;;
8488;SDS011;4281;45.772;12.852;2023-08-08T04:27:31;0.80;;;0.70;;
8488;SDS011;4281;45.772;12.852;2023-08-08T04:29:59;0.70;;;0.70;;
8488;SDS011;4281;45.772;12.852;2023-08-08T04:32:27;2.67;;;0.70;;
8488;SDS011;4281;45.772;12.852;2023-08-08T04:34:57;0.77;;;0.70;;
8488;SDS011;4281;45.772;12.852;2023-08-08T04:37:25;0.70;;;0.70;;
8488;SDS011;4281;45.772;12.852;2023-08-08T04:39:53;1.10;;;0.93;;
8488;SDS011;4281;45.772;12.852;2023-08-08T04:42:21;0.83;;;0.80;;
8488;SDS011;4281;45.772;12.852;2023-08-08T04:44:48;1.37;;;0.73;;
8488;SDS011;4281;45.772;12.852;2023-08-08T04:47:16;1.80;;;0.73;;
8488;SDS011;4281;45.772;12.852;2023-08-08T04:49:44;1.07;;;0.97;;
8488;SDS011;4281;45.772;12.852;2023-08-08T04:52:13;3.27;;;1.00;;
8488;SDS011;4281;45.772;12.852;2023-08-08T04:54:41;0.80;;;0.67;;
8488;SDS011;4281;45.772;12.852;2023-08-08T04:57:10;1.03;;;0.97;;
8488;SDS011;4281;45.772;12.852;2023-08-08T04:59:38;1.23;;;0.87;;
8488;SDS011;4281;45.772;12.852;2023-08-08T05:02:06;0.97;;;0.80;;
8488;SDS011;4281;45.772;12.852;2023-08-08T05:04:34;0.80;;;0.80;;
8488;SDS011;4281;45.772;12.852;2023-08-08T05:07:01;1.03;;;0.90;;
8488;SDS011;4281;45.772;12.852;2023-08-08T05:09:31;3.77;;;0.97;;
8488;SDS011;4281;45.772;12.852;2023-08-08T05:11:59;3.30;;;0.70;;
8488;SDS011;4281;45.772;12.852;2023-08-08T05:14:27;0.73;;;0.73;;
8488;SDS011;4281;45.772;12.852;2023-08-08T05:16:55;1.03;;;0.90;;
8488;SDS011;4281;45.772;12.852;2023-08-08T05:19:23;1.60;;;0.77;;
8488;SDS011;4281;45.772;12.852;2023-08-08T05:21:52;2.03;;;0.90;;
8488;SDS011;4281;45.772;12.852;2023-08-08T05:24:20;1.80;;;0.80;;
8488;SDS011;4281;45.772;12.852;2023-08-08T05:26:50;2.43;;;0.80;;
8488;SDS011;4281;45.772;12.852;2023-08-08T05:29:19;1.03;;;0.80;;
8488;SDS011;4281;45.772;12.852;2023-08-08T05:31:47;1.30;;;1.00;;
8488;SDS011;4281;45.772;12.852;2023-08-08T05:34:15;1.07;;;0.70;;
8488;SDS011;4281;45.772;12.852;2023-08-08T05:36:43;0.70;;;0.70;;
8488;SDS011;4281;45.772;12.852;2023-08-08T05:39:11;0.83;;;0.70;;
8488;SDS011;4281;45.772;12.852;2023-08-08T05:41:39;1.03;;;0.93;;
8488;SDS011;4281;45.772;12.852;2023-08-08T05:44:08;0.80;;;0.80;;
8488;SDS011;4281;45.772;12.852;2023-08-08T05:46:36;1.37;;;0.77;;
8488;SDS011;4281;45.772;12.852;2023-08-08T05:49:04;1.00;;;0.70;;
8488;SDS011;4281;45.772;12.852;2023-08-08T05:51:33;0.70;;;0.70;;
8488;SDS011;4281;45.772;12.852;2023-08-08T05:54:01;1.37;;;0.73;;
8488;SDS011;4281;45.772;12.852;2023-08-08T05:56:34;1.13;;;0.90;;
8488;SDS011;4281;45.772;12.852;2023-08-08T05:59:02;0.90;;;0.80;;
8488;SDS011;4281;45.772;12.852;2023-08-08T06:01:31;1.40;;;0.80;;
8488;SDS011;4281;45.772;12.852;2023-08-08T06:04:00;0.87;;;0.70;;
8488;SDS011;4281;45.772;12.852;2023-08-08T06:06:28;0.87;;;0.80;;
8488;SDS011;4281;45.772;12.852;2023-08-08T06:08:56;0.90;;;0.80;;
8488;SDS011;4281;45.772;12.852;2023-08-08T06:11:24;1.13;;;0.70;;
8488;SDS011;4281;45.772;12.852;2023-08-08T06:13:52;1.90;;;0.70;;
8488;SDS011;4281;45.772;12.852;2023-08-08T06:16:20;0.60;;;0.60;;
8488;SDS011;4281;45.772;12.852;2023-08-08T06:18:50;0.70;;;0.70;;
8488;SDS011;4281;45.772;12.852;2023-08-08T06:21:19;0.83;;;0.70;;
8488;SDS011;4281;45.772;12.852;2023-08-08T06:23:46;1.30;;;0.83;;
8488;SDS011;4281;45.772;12.852;2023-08-08T06:26:15;0.60;;;0.60;;
8488;SDS011;4281;45.772;12.852;2023-08-08T06:28:43;0.83;;;0.73;;
8488;SDS011;4281;45.772;12.852;2023-08-08T06:31:11;0.63;;;0.63;;
8488;SDS011;4281;45.772;12.852;2023-08-08T06:33:39;0.97;;;0.70;;
8488;SDS011;4281;45.772;12.852;2023-08-08T06:36:08;1.17;;;0.90;;
8488;SDS011;4281;45.772;12.852;2023-08-08T06:38:36;0.90;;;0.80;;
8488;SDS011;4281;45.772;12.852;2023-08-08T06:41:04;0.70;;;0.70;;
8488;SDS011;4281;45.772;12.852;2023-08-08T06:43:32;1.00;;;0.90;;
8488;SDS011;4281;45.772;12.852;2023-08-08T06:46:00;1.07;;;0.90;;
8488;SDS011;4281;45.772;12.852;2023-08-08T06:48:28;2.00;;;0.90;;
8488;SDS011;4281;45.772;12.852;2023-08-08T06:50:56;0.90;;;0.73;;
8488;SDS011;4281;45.772;12.852;2023-08-08T06:53:25;1.83;;;0.80;;
8488;SDS011;4281;45.772;12.852;2023-08-08T06:55:53;3.07;;;0.90;;
8488;SDS011;4281;45.772;12.852;2023-08-08T06:58:21;1.30;;;1.00;;
8488;SDS011;4281;45.772;12.852;2023-08-08T07:00:50;2.57;;;1.07;;
8488;SDS011;4281;45.772;12.852;2023-08-08T07:03:18;0.97;;;0.80;;
8488;SDS011;4281;45.772;12.852;2023-08-08T07:05:46;1.33;;;0.80;;
8488;SDS011;4281;45.772;12.852;2023-08-08T07:08:18;1.10;;;0.90;;
8488;SDS011;4281;45.772;12.852;2023-08-08T07:10:47;2.30;;;0.90;;
8488;SDS011;4281;45.772;12.852;2023-08-08T07:13:15;0.70;;;0.70;;
8488;SDS011;4281;45.772;12.852;2023-08-08T07:15:43;1.23;;;0.97;;
8488;SDS011;4281;45.772;12.852;2023-08-08T07:18:11;1.20;;;0.87;;
8488;SDS011;4281;45.772;12.852;2023-08-08T07:20:39;1.33;;;0.80;;
8488;SDS011;4281;45.772;12.852;2023-08-08T07:23:07;1.73;;;0.80;;
8488;SDS011;4281;45.772;12.852;2023-08-08T07:25:35;0.80;;;0.80;;
8488;SDS011;4281;45.772;12.852;2023-08-08T07:28:04;1.60;;;0.90;;
8488;SDS011;4281;45.772;12.852;2023-08-08T07:30:32;0.80;;;0.80;;
8488;SDS011;4281;45.772;12.852;2023-08-08T07:33:00;1.83;;;1.07;;
8488;SDS011;4281;45.772;12.852;2023-08-08T07:35:28;1.13;;;0.90;;
8488;SDS011;4281;45.772;12.852;2023-08-08T07:37:56;1.77;;;1.10;;
8488;SDS011;4281;45.772;12.852;2023-08-08T07:40:24;1.23;;;0.80;;
8488;SDS011;4281;45.772;12.852;2023-08-08T07:42:52;2.17;;;0.90;;
8488;SDS011;4281;45.772;12.852;2023-08-08T07:45:21;1.07;;;0.93;;
8488;SDS011;4281;45.772;12.852;2023-08-08T07:47:49;1.13;;;0.80;;
8488;SDS011;4281;45.772;12.852;2023-08-08T07:50:17;2.07;;;1.10;;
8488;SDS011;4281;45.772;12.852;2023-08-08T07:52:45;1.03;;;0.93;;
8488;SDS011;4281;45.772;12.852;2023-08-08T07:55:13;0.90;;;0.70;;
8488;SDS011;4281;45.772;12.852;2023-08-08T07:57:42;0.90;;;0.70;;
8488;SDS011;4281;45.772;12.852;2023-08-08T08:00:10;0.80;;;0.70;;
8488;SDS011;4281;45.772;12.852;2023-08-08T08:02:42;0.90;;;0.80;;
8488;SDS011;4281;45.772;12.852;2023-08-08T08:05:10;0.80;;;0.80;;
8488;SDS011;4281;45.772;12.852;2023-08-08T08:07:39;0.80;;;0.80;;
8488;SDS011;4281;45.772;12.852;2023-08-08T08:10:07;0.97;;;0.70;;
8488;SDS011;4281;45.772;12.852;2023-08-08T08:12:37;0.50;;;0.50;;
8488;SDS011;4281;45.772;12.852;2023-08-08T08:15:05;1.00;;;0.90;;
8488;SDS011;4281;45.772;12.852;2023-08-08T08:17:34;1.03;;;0.70;;
8488;SDS011;4281;45.772;12.852;2023-08-08T08:20:03;1.50;;;0.90;;
8488;SDS011;4281;45.772;12.852;2023-08-08T08:22:37;0.90;;;0.90;;
8488;SDS011;4281;45.772;12.852;2023-08-08T08:25:05;0.93;;;0.87;;
8488;SDS011;4281;45.772;12.852;2023-08-08T08:27:38;1.00;;;0.90;;
8488;SDS011;4281;45.772;12.852;2023-08-08T08:30:06;1.30;;;0.90;;
8488;SDS011;4281;45.772;12.852;2023-08-08T08:32:36;0.80;;;0.80;;
8488;SDS011;4281;45.772;12.852;2023-08-08T08:35:06;0.67;;;0.67;;
8488;SDS011;4281;45.772;12.852;2023-08-08T08:37:35;1.00;;;0.80;;
8488;SDS011;4281;45.772;12.852;2023-08-08T08:40:03;1.07;;;0.77;;
8488;SDS011;4281;45.772;12.852;2023-08-08T08:42:32;0.90;;;0.67;;
8488;SDS011;4281;45.772;12.852;2023-08-08T08:45:01;1.10;;;1.00;;
8488;SDS011;4281;45.772;12.852;2023-08-08T08:47:30;1.13;;;1.00;;
8488;SDS011;4281;45.772;12.852;2023-08-08T08:49:58;0.93;;;0.87;;
8488;SDS011;4281;45.772;12.852;2023-08-08T08:52:29;1.27;;;0.93;;
8488;SDS011;4281;45.772;12.852;2023-08-08T08:54:57;1.63;;;0.80;;
8488;SDS011;4281;45.772;12.852;2023-08-08T08:57:25;1.63;;;0.90;;
8488;SDS011;4281;45.772;12.852;2023-08-08T08:59:53;2.10;;;0.90;;
8488;SDS011;4281;45.772;12.852;2023-08-08T09:02:21;0.77;;;0.77;;
8488;SDS011;4281;45.772;12.852;2023-08-08T09:04:50;1.03;;;0.80;;
8488;SDS011;4281;45.772;12.852;2023-08-08T09:07:19;0.70;;;0.70;;
8488;SDS011;4281;45.772;12.852;2023-08-08T09:09:49;1.43;;;0.80;;
8488;SDS011;4281;45.772;12.852;2023-08-08T09:12:17;0.80;;;0.70;;
8488;SDS011;4281;45.772;12.852;2023-08-08T09:14:46;0.70;;;0.70;;
8488;SDS011;4281;45.772;12.852;2023-08-08T09:17:15;1.20;;;1.10;;
8488;SDS011;4281;45.772;12.852;2023-08-08T09:19:43;1.20;;;1.10;;
8488;SDS011;4281;45.772;12.852;2023-08-08T09:22:11;1.10;;;1.00;;
8488;SDS011;4281;45.772;12.852;2023-08-08T09:24:40;1.20;;;1.00;;
8488;SDS011;4281;45.772;12.852;2023-08-08T09:27:10;1.00;;;0.90;;
8488;SDS011;4281;45.772;12.852;2023-08-08T09:29:38;1.80;;;1.00;;
8488;SDS011;4281;45.772;12.852;2023-08-08T09:32:06;0.70;;;0.70;;
8488;SDS011;4281;45.772;12.852;2023-08-08T09:34:34;0.80;;;0.80;;
8488;SDS011;4281;45.772;12.852;2023-08-08T09:37:02;0.80;;;0.80;;
8488;SDS011;4281;45.772;12.852;2023-08-08T09:39:31;1.10;;;0.93;;
8488;SDS011;4281;45.772;12.852;2023-08-08T09:42:01;1.60;;;1.40;;
8488;SDS011;4281;45.772;12.852;2023-08-08T09:44:32;1.83;;;1.60;;
8488;SDS011;4281;45.772;12.852;2023-08-08T09:47:01;1.43;;;1.33;;
8488;SDS011;4281;45.772;12.852;2023-08-08T09:49:29;1.40;;;1.03;;
8488;SDS011;4281;45.772;12.852;2023-08-08T09:52:00;1.10;;;0.97;;
8488;SDS011;4281;45.772;12.852;2023-08-08T09:54:30;1.00;;;0.90;;
8488;SDS011;4281;45.772;12.852;2023-08-08T09:56:58;1.07;;;0.97;;
8488;SDS011;4281;45.772;12.852;2023-08-08T09:59:26;0.87;;;0.80;;
8488;SDS011;4281;45.772;12.852;2023-08-08T10:01:55;3.07;;;1.00;;
8488;SDS011;4281;45.772;12.852;2023-08-08T10:04:24;1.70;;;0.80;;
8488;SDS011;4281;45.772;12.852;2023-08-08T10:06:53;0.70;;;0.70;;
8488;SDS011;4281;45.772;12.852;2023-08-08T10:09:21;1.00;;;0.90;;
8488;SDS011;4281;45.772;12.852;2023-08-08T10:11:49;0.80;;;0.80;;
8488;SDS011;4281;45.772;12.852;2023-08-08T10:14:16;0.80;;;0.80;;
8488;SDS011;4281;45.772;12.852;2023-08-08T10:16:45;0.77;;;0.77;;
8488;SDS011;4281;45.772;12.852;2023-08-08T10:19:21;0.80;;;0.80;;
8488;SDS011;4281;45.772;12.852;2023-08-08T10:21:55;1.40;;;1.00;;
8488;SDS011;4281;45.772;12.852;2023-08-08T10:24:24;1.27;;;1.00;;
8488;SDS011;4281;45.772;12.852;2023-08-08T10:26:52;1.20;;;0.80;;
8488;SDS011;4281;45.772;12.852;2023-08-08T10:29:24;0.90;;;0.73;;
8488;SDS011;4281;45.772;12.852;2023-08-08T10:31:53;1.00;;;0.97;;
8488;SDS011;4281;45.772;12.852;2023-08-08T10:34:36;1.00;;;0.67;;
8488;SDS011;4281;45.772;12.852;2023-08-08T10:37:04;0.97;;;0.77;;
8488;SDS011;4281;45.772;12.852;2023-08-08T10:39:33;0.70;;;0.70;;
8488;SDS011;4281;45.772;12.852;2023-08-08T10:42:02;1.37;;;1.00;;
8488;SDS011;4281;45.772;12.852;2023-08-08T10:44:31;0.80;;;0.73;;
8488;SDS011;4281;45.772;12.852;2023-08-08T10:46:59;0.83;;;0.83;;
8488;SDS011;4281;45.772;12.852;2023-08-08T10:49:29;0.77;;;0.77;;
8488;SDS011;4281;45.772;12.852;2023-08-08T10:52:01;0.60;;;0.60;;
8488;SDS011;4281;45.772;12.852;2023-08-08T10:54:30;0.83;;;0.83;;
8488;SDS011;4281;45.772;12.852;2023-08-08T10:56:59;0.70;;;0.70;;
8488;SDS011;4281;45.772;12.852;2023-08-08T10:59:35;1.47;;;0.70;;
8488;SDS011;4281;45.772;12.852;2023-08-08T11:02:04;0.70;;;0.70;;
8488;SDS011;4281;45.772;12.852;2023-08-08T11:04:35;0.70;;;0.70;;
8488;SDS011;4281;45.772;12.852;2023-08-08T11:07:03;0.80;;;0.80;;
8488;SDS011;4281;45.772;12.852;2023-08-08T11:09:31;0.90;;;0.80;;
8488;SDS011;4281;45.772;12.852;2023-08-08T11:11:59;0.70;;;0.70;;
8488;SDS011;4281;45.772;12.852;2023-08-08T11:14:28;1.70;;;0.73;;
8488;SDS011;4281;45.772;12.852;2023-08-08T11:16:56;0.87;;;0.87;;
8488;SDS011;4281;45.772;12.852;2023-08-08T11:19:24;0.70;;;0.70;;
8488;SDS011;4281;45.772;12.852;2023-08-08T11:21:53;0.97;;;0.60;;
8488;SDS011;4281;45.772;12.852;2023-08-08T11:24:21;1.23;;;0.70;;
8488;SDS011;4281;45.772;12.852;2023-08-08T11:26:49;1.40;;;0.60;;
8488;SDS011;4281;45.772;12.852;2023-08-08T11:29:18;0.70;;;0.70;;
8488;SDS011;4281;45.772;12.852;2023-08-08T11:31:46;1.43;;;0.73;;
8488;SDS011;4281;45.772;12.852;2023-08-08T11:34:15;0.60;;;0.60;;
8488;SDS011;4281;45.772;12.852;2023-08-08T11:36:45;0.70;;;0.70;;
8488;SDS011;4281;45.772;12.852;2023-08-08T11:39:14;0.80;;;0.63;;
8488;SDS011;4281;45.772;12.852;2023-08-08T11:41:42;0.60;;;0.60;;
8488;SDS011;4281;45.772;12.852;2023-08-08T11:44:11;0.60;;;0.60;;
8488;SDS011;4281;45.772;12.852;2023-08-08T11:46:43;0.83;;;0.70;;
8488;SDS011;4281;45.772;12.852;2023-08-08T11:49:14;1.07;;;0.83;;
8488;SDS011;4281;45.772;12.852;2023-08-08T11:51:44;1.07;;;0.70;;
8488;SDS011;4281;45.772;12.852;2023-08-08T11:54:12;0.50;;;0.50;;
8488;SDS011;4281;45.772;12.852;2023-08-08T11:56:42;0.60;;;0.60;;
8488;SDS011;4281;45.772;12.852;2023-08-08T11:59:10;1.40;;;0.90;;
8488;SDS011;4281;45.772;12.852;2023-08-08T12:01:39;1.27;;;0.70;;
8488;SDS011;4281;45.772;12.852;2023-08-08T12:04:09;1.00;;;1.00;;
8488;SDS011;4281;45.772;12.852;2023-08-08T12:06:37;1.83;;;1.60;;
8488;SDS011;4281;45.772;12.852;2023-08-08T12:09:06;1.93;;;1.80;;
8488;SDS011;4281;45.772;12.852;2023-08-08T12:11:36;2.20;;;2.00;;
8488;SDS011;4281;45.772;12.852;2023-08-08T12:14:04;1.83;;;1.70;;
8488;SDS011;4281;45.772;12.852;2023-08-08T12:16:37;1.40;;;1.30;;
8488;SDS011;4281;45.772;12.852;2023-08-08T12:19:06;1.30;;;1.20;;
8488;SDS011;4281;45.772;12.852;2023-08-08T12:21:35;1.30;;;1.20;;
8488;SDS011;4281;45.772;12.852;2023-08-08T12:24:03;1.67;;;1.43;;
8488;SDS011;4281;45.772;12.852;2023-08-08T12:26:31;2.50;;;2.10;;
8488;SDS011;4281;45.772;12.852;2023-08-08T12:29:01;1.70;;;1.60;;
8488;SDS011;4281;45.772;12.852;2023-08-08T12:31:28;1.70;;;1.60;;
8488;SDS011;4281;45.772;12.852;2023-08-08T12:33:56;1.63;;;1.50;;
8488;SDS011;4281;45.772;12.852;2023-08-08T12:36:24;2.07;;;1.80;;
8488;SDS011;4281;45.772;12.852;2023-08-08T12:38:52;1.40;;;1.30;;
8488;SDS011;4281;45.772;12.852;2023-08-08T12:41:20;1.63;;;1.23;;
8488;SDS011;4281;45.772;12.852;2023-08-08T12:43:48;2.07;;;1.47;;
8488;SDS011;4281;45.772;12.852;2023-08-08T12:46:17;1.70;;;1.60;;
8488;SDS011;4281;45.772;12.852;2023-08-08T12:48:45;1.40;;;1.07;;
8488;SDS011;4281;45.772;12.852;2023-08-08T12:51:13;1.80;;;1.40;;
8488;SDS011;4281;45.772;12.852;2023-08-08T12:53:42;2.27;;;1.83;;
8488;SDS011;4281;45.772;12.852;2023-08-08T12:56:11;3.10;;;1.93;;
8488;SDS011;4281;45.772;12.852;2023-08-08T12:58:38;1.50;;;1.40;;
8488;SDS011;4281;45.772;12.852;2023-08-08T13:01:07;1.60;;;1.50;;
8488;SDS011;4281;45.772;12.852;2023-08-08T13:03:36;1.80;;;1.50;;
8488;SDS011;4281;45.772;12.852;2023-08-08T13:06:11;1.50;;;1.37;;
8488;SDS011;4281;45.772;12.852;2023-08-08T13:08:39;2.43;;;1.27;;
8488;SDS011;4281;45.772;12.852;2023-08-08T13:11:07;1.50;;;1.30;;
8488;SDS011;4281;45.772;12.852;2023-08-08T13:13:35;0.90;;;0.90;;
8488;SDS011;4281;45.772;12.852;2023-08-08T13:16:03;1.40;;;1.00;;
8488;SDS011;4281;45.772;12.852;2023-08-08T13:18:31;1.40;;;1.30;;
8488;SDS011;4281;45.772;12.852;2023-08-08T13:21:00;1.63;;;1.53;;
8488;SDS011;4281;45.772;12.852;2023-08-08T13:23:28;1.53;;;1.40;;
8488;SDS011;4281;45.772;12.852;2023-08-08T13:25:56;1.20;;;1.10;;
8488;SDS011;4281;45.772;12.852;2023-08-08T13:28:25;1.13;;;0.90;;
8488;SDS011;4281;45.772;12.852;2023-08-08T13:30:53;1.20;;;1.10;;
8488;SDS011;4281;45.772;12.852;2023-08-08T13:33:21;1.80;;;0.83;;
8488;SDS011;4281;45.772;12.852;2023-08-08T13:35:49;0.87;;;0.80;;
8488;SDS011;4281;45.772;12.852;2023-08-08T13:38:18;1.37;;;1.00;;
8488;SDS011;4281;45.772;12.852;2023-08-08T13:40:46;1.00;;;1.00;;
8488;SDS011;4281;45.772;12.852;2023-08-08T13:43:14;2.23;;;1.07;;
8488;SDS011;4281;45.772;12.852;2023-08-08T13:45:42;1.50;;;1.30;;
8488;SDS011;4281;45.772;12.852;2023-08-08T13:48:10;2.13;;;1.70;;
8488;SDS011;4281;45.772;12.852;2023-08-08T13:50:38;1.37;;;1.20;;
8488;SDS011;4281;45.772;12.852;2023-08-08T13:53:06;1.50;;;1.20;;
8488;SDS011;4281;45.772;12.852;2023-08-08T13:55:35;1.70;;;1.40;;
8488;SDS011;4281;45.772;12.852;2023-08-08T13:58:06;1.40;;;1.30;;
8488;SDS011;4281;45.772;12.852;2023-08-08T14:00:35;2.40;;;1.50;;
8488;SDS011;4281;45.772;12.852;2023-08-08T14:03:03;1.20;;;1.10;;
8488;SDS011;4281;45.772;12.852;2023-08-08T14:05:31;1.10;;;1.00;;
8488;SDS011;4281;45.772;12.852;2023-08-08T14:07:59;1.03;;;0.90;;
8488;SDS011;4281;45.772;12.852;2023-08-08T14:10:27;0.77;;;0.77;;
8488;SDS011;4281;45.772;12.852;2023-08-08T14:12:57;0.83;;;0.80;;
8488;SDS011;4281;45.772;12.852;2023-08-08T14:15:25;1.10;;;1.00;;
8488;SDS011;4281;45.772;12.852;2023-08-08T14:17:53;0.80;;;0.80;;
8488;SDS011;4281;45.772;12.852;2023-08-08T14:20:21;1.07;;;0.97;;
8488;SDS011;4281;45.772;12.852;2023-08-08T14:22:50;1.50;;;0.70;;
8488;SDS011;4281;45.772;12.852;2023-08-08T14:25:18;1.43;;;0.90;;
8488;SDS011;4281;45.772;12.852;2023-08-08T14:27:46;1.23;;;1.10;;
8488;SDS011;4281;45.772;12.852;2023-08-08T14:30:15;2.90;;;1.90;;
8488;SDS011;4281;45.772;12.852;2023-08-08T14:32:43;2.27;;;1.63;;
8488;SDS011;4281;45.772;12.852;2023-08-08T14:35:11;1.60;;;1.50;;
8488;SDS011;4281;45.772;12.852;2023-08-08T14:37:39;2.23;;;1.70;;
8488;SDS011;4281;45.772;12.852;2023-08-08T14:40:07;1.93;;;1.83;;
8488;SDS011;4281;45.772;12.852;2023-08-08T14:42:36;1.50;;;1.40;;
8488;SDS011;4281;45.772;12.852;2023-08-08T14:45:04;1.73;;;1.63;;
8488;SDS011;4281;45.772;12.852;2023-08-08T14:47:34;2.30;;;2.10;;
8488;SDS011;4281;45.772;12.852;2023-08-08T14:50:02;1.50;;;1.40;;
8488;SDS011;4281;45.772;12.852;2023-08-08T14:52:31;0.97;;;0.97;;
8488;SDS011;4281;45.772;12.852;2023-08-08T14:54:59;1.40;;;1.30;;
8488;SDS011;4281;45.772;12.852;2023-08-08T14:57:27;1.30;;;1.20;;
8488;SDS011;4281;45.772;12.852;2023-08-08T14:59:54;1.30;;;1.17;;
8488;SDS011;4281;45.772;12.852;2023-08-08T15:02:22;1.13;;;1.00;;
8488;SDS011;4281;45.772;12.852;2023-08-08T15:04:52;0.90;;;0.80;;
8488;SDS011;4281;45.772;12.852;2023-08-08T15:07:20;0.70;;;0.70;;
8488;SDS011;4281;45.772;12.852;2023-08-08T15:09:48;0.70;;;0.70;;